Time;durP1;ratioP1;P1;durP2;ratioP2;P2;SDS_P1;SDS_P2;PMS_P1;PMS_P2;Temp;Humidity;BMP_temperature;BMP_pressure;BME280_temperature;BME280_humidity;BME280_pressure;Samples;Min_cycle;Max_cycle;Signal;HPM_P1;HPM_P2
2023/10/04 00:02:21;;;;;;;3.20;1.20;;;13.60;99.90;;;13.73;100.00;101957.28;5259819;28;20040;-49
2023/10/04 00:04:56;;;;;;;1.90;1.08;;;13.60;99.90;;;13.72;100.00;101965.97;5258784;28;20573;-49
2023/10/04 00:07:29;;;;;;;2.13;1.13;;;13.60;99.90;;;13.69;100.00;101973.72;5248809;28;20059;-49
2023/10/04 00:10:05;;;;;;;2.17;0.95;;;13.60;99.90;;;13.67;100.00;101969.22;5247353;28;20131;-49
2023/10/04 00:12:38;;;;;;;4.05;1.50;;;13.60;99.90;;;13.66;100.00;101980.56;5246349;28;20134;-50
2023/10/04 00:15:12;;;;;;;2.72;1.20;;;13.60;99.90;;;13.62;100.00;101984.75;5267992;28;20419;-50
2023/10/04 00:17:45;;;;;;;3.38;1.10;;;13.50;99.90;;;13.58;100.00;101983.75;5243742;28;20044;-51
2023/10/04 00:20:20;;;;;;;3.33;1.10;;;13.50;99.90;;;13.53;100.00;101989.63;5247081;28;20122;-49
2023/10/04 00:22:53;;;;;;;3.65;1.20;;;13.50;99.90;;;13.47;100.00;101987.66;5253575;28;20052;-50
2023/10/04 00:25:25;;;;;;;2.63;1.13;;;13.40;99.90;;;13.43;100.00;101997.91;5254415;28;20302;-48
2023/10/04 00:27:58;;;;;;;2.47;0.98;;;13.40;99.90;;;13.41;100.00;101999.59;5245895;28;20044;-49
2023/10/04 00:30:31;;;;;;;3.05;1.20;;;13.30;99.90;;;13.40;100.00;101997.81;5252433;28;20044;-49
2023/10/04 00:33:08;;;;;;;3.35;1.20;;;13.30;99.90;;;13.37;100.00;101997.69;5248054;28;20054;-49
2023/10/04 00:35:42;;;;;;;2.28;1.27;;;13.30;99.90;;;13.37;100.00;101998.59;5247604;28;20043;-50
2023/10/04 00:38:16;;;;;;;1.90;1.17;;;13.30;99.90;;;13.37;100.00;101995.97;5248788;28;20044;-49
2023/10/04 00:40:51;;;;;;;4.10;1.48;;;13.20;99.90;;;13.38;100.00;101996.84;5250613;28;20491;-50
2023/10/04 00:43:23;;;;;;;2.47;1.25;;;13.30;99.90;;;13.35;100.00;102005.47;5249279;28;20079;-49
2023/10/04 00:45:56;;;;;;;3.00;1.17;;;13.20;99.90;;;13.35;100.00;102000.22;5247233;28;20043;-50
2023/10/04 00:48:31;;;;;;;2.70;1.10;;;13.20;99.90;;;13.38;100.00;102007.34;5262995;28;20140;-50
2023/10/04 00:51:06;;;;;;;3.55;1.02;;;13.30;99.90;;;13.40;100.00;102003.94;5246475;28;20039;-49
2023/10/04 00:53:39;;;;;;;2.30;1.20;;;13.30;99.90;;;13.45;100.00;102012.91;5256662;28;20047;-49
2023/10/04 00:56:15;;;;;;;4.20;1.33;;;13.30;99.90;;;13.52;100.00;102014.03;5257474;28;20044;-49
2023/10/04 00:58:54;;;;;;;2.85;1.20;;;13.40;99.90;;;13.59;100.00;102013.47;5258059;28;20063;-49
2023/10/04 01:01:26;;;;;;;2.38;0.95;;;13.40;99.90;;;13.64;100.00;102025.03;5253732;28;20052;-50
2023/10/04 01:04:00;;;;;;;4.05;1.13;;;13.50;99.90;;;13.67;100.00;102024.25;5244978;28;20404;-50
2023/10/04 01:06:35;;;;;;;2.80;1.20;;;13.60;99.90;;;13.71;100.00;102029.72;5255160;28;20044;-48
2023/10/04 01:09:09;;;;;;;2.90;0.90;;;13.60;99.90;;;13.74;100.00;102032.44;5247361;28;20515;-49
2023/10/04 01:11:46;;;;;;;2.03;0.80;;;13.60;99.90;;;13.78;100.00;102033.47;5244506;28;20132;-49
2023/10/04 01:14:25;;;;;;;2.13;1.00;;;13.70;99.90;;;13.81;100.00;102034.47;5249718;28;20043;-49
2023/10/04 01:17:03;;;;;;;3.20;1.10;;;13.70;99.90;;;13.82;100.00;102035.38;5269527;28;20060;-49
2023/10/04 01:19:35;;;;;;;1.38;0.77;;;13.70;99.90;;;13.83;100.00;102038.06;5262590;28;20052;-49
2023/10/04 01:22:11;;;;;;;3.85;1.38;;;13.70;99.90;;;13.82;100.00;102031.06;5247291;28;20310;-48
2023/10/04 01:24:44;;;;;;;2.10;0.80;;;13.70;99.90;;;13.83;100.00;102024.09;5248068;28;20135;-49
2023/10/04 01:27:16;;;;;;;2.47;0.93;;;13.80;99.90;;;13.83;100.00;102030.22;5248029;28;20093;-49
2023/10/04 01:29:49;;;;;;;4.18;0.90;;;13.70;99.90;;;13.81;100.00;102034.47;5256735;28;20055;-50
2023/10/04 01:32:23;;;;;;;2.17;1.05;;;13.70;99.90;;;13.81;100.00;102024.00;5249729;28;20040;-49
2023/10/04 01:34:59;;;;;;;2.53;0.98;;;13.70;99.90;;;13.81;100.00;102034.47;5250912;28;20060;-48
2023/10/04 01:37:35;;;;;;;1.70;0.80;;;13.70;99.90;;;13.80;100.00;102037.94;5257361;28;20052;-49
2023/10/04 01:40:12;;;;;;;2.08;1.00;;;13.70;99.90;;;13.82;100.00;102030.13;5247114;28;20041;-49
2023/10/04 01:42:45;;;;;;;2.17;0.70;;;13.70;99.90;;;13.81;100.00;102029.22;5245098;28;20449;-50
2023/10/04 01:45:20;;;;;;;3.30;1.20;;;13.70;99.90;;;13.77;100.00;102029.97;5246700;28;20073;-51
2023/10/04 01:47:53;;;;;;;2.72;1.10;;;13.70;99.90;;;13.77;100.00;102036.94;5255318;28;20513;-50
2023/10/04 01:50:25;;;;;;;2.00;0.90;;;13.70;99.90;;;13.75;100.00;102039.47;5244870;28;20106;-51
2023/10/04 01:53:00;;;;;;;3.65;1.15;;;13.70;99.90;;;13.70;100.00;102035.78;5244862;28;20052;-49
2023/10/04 01:55:33;;;;;;;2.35;1.20;;;13.60;99.90;;;13.63;100.00;102038.06;5245147;28;20556;-50
2023/10/04 01:58:06;;;;;;;1.77;1.10;;;13.60;99.90;;;13.56;100.00;102037.81;5246130;28;20045;-49
2023/10/04 02:00:38;;;;;;;2.72;0.93;;;13.50;99.90;;;13.50;100.00;102036.69;5249423;28;20135;-50
2023/10/04 02:03:11;;;;;;;2.03;1.10;;;13.40;99.90;;;13.48;100.00;102033.06;5247008;28;20045;-48
2023/10/04 02:05:45;;;;;;;3.80;0.85;;;13.40;99.90;;;13.43;100.00;102032.91;5248028;28;20454;-48
2023/10/04 02:08:18;;;;;;;2.53;1.05;;;13.40;99.90;;;13.41;100.00;102041.50;5263599;28;20113;-50
2023/10/04 02:10:52;;;;;;;3.03;1.02;;;13.30;99.90;;;13.40;100.00;102029.25;5245025;28;20139;-48
2023/10/04 02:13:25;;;;;;;3.15;0.98;;;13.30;99.90;;;13.39;100.00;102027.44;5245206;28;20038;-50
2023/10/04 02:15:59;;;;;;;3.15;1.05;;;13.30;99.90;;;13.38;100.00;102041.38;5251247;28;20131;-50
2023/10/04 02:18:31;;;;;;;1.90;0.90;;;13.30;99.90;;;13.36;100.00;102033.44;5248955;28;20106;-50
2023/10/04 02:21:03;;;;;;;1.98;1.00;;;13.30;99.90;;;13.33;100.00;102035.03;5251167;28;20135;-50
2023/10/04 02:23:38;;;;;;;2.67;0.82;;;13.20;99.90;;;13.33;100.00;102032.44;5259261;28;20075;-49
2023/10/04 02:26:11;;;;;;;3.88;1.20;;;13.20;99.90;;;13.32;100.00;102031.53;5248655;28;20139;-49
2023/10/04 02:28:45;;;;;;;2.50;0.98;;;13.30;99.90;;;13.33;100.00;102021.94;5252974;28;20085;-49
2023/10/04 02:31:19;;;;;;;2.17;1.00;;;13.30;99.90;;;13.36;100.00;102027.31;5261597;28;20044;-49
2023/10/04 02:33:52;;;;;;;;;;;13.30;99.90;;;13.37;100.00;102036.97;5273600;28;20724;-50
2023/10/04 02:36:25;;;;;;;2.15;0.95;;;13.30;99.90;;;13.37;100.00;102027.41;5252187;28;19927;-50
2023/10/04 02:38:59;;;;;;;1.55;1.00;;;13.30;99.90;;;13.37;100.00;102039.59;5249041;28;20049;-48
2023/10/04 02:41:31;;;;;;;2.22;0.90;;;13.30;99.90;;;13.36;100.00;102035.16;5257368;28;20152;-48
2023/10/04 02:44:05;;;;;;;3.00;1.00;;;13.30;99.90;;;13.37;100.00;102040.50;5260188;28;20078;-49
2023/10/04 02:46:42;;;;;;;2.83;1.30;;;13.30;99.90;;;13.37;100.00;102044.84;5249983;28;20044;-51
2023/10/04 02:49:14;;;;;;;2.35;1.05;;;13.30;99.90;;;13.38;100.00;102039.66;5253410;28;20040;-49
2023/10/04 02:51:46;;;;;;;1.95;0.90;;;13.30;99.90;;;13.39;100.00;102032.69;5253887;28;20071;-51
2023/10/04 02:54:23;;;;;;;2.33;0.80;;;13.30;99.90;;;13.39;100.00;102032.69;5251541;28;20043;-50
2023/10/04 02:56:56;;;;;;;2.50;0.80;;;13.30;99.90;;;13.38;100.00;102036.16;5250768;28;20544;-50
2023/10/04 02:59:28;;;;;;;1.55;0.93;;;13.30;99.90;;;13.37;100.00;102026.50;5248599;28;20250;-50
2023/10/04 03:02:01;;;;;;;2.47;0.80;;;13.30;99.90;;;13.37;100.00;102035.25;5247632;28;20129;-49
2023/10/04 03:04:35;;;;;;;1.98;1.00;;;13.30;99.90;;;13.36;100.00;102022.97;5267842;28;20053;-50
2023/10/04 03:07:12;;;;;;;2.15;0.98;;;13.20;99.90;;;13.34;100.00;102021.13;5246767;28;20135;-50
2023/10/04 03:09:47;;;;;;;1.95;1.20;;;13.30;99.90;;;13.32;100.00;102025.41;5259467;28;20047;-50
2023/10/04 03:12:19;;;;;;;1.52;0.75;;;13.30;99.90;;;13.33;100.00;102029.81;5268493;28;20048;-49
2023/10/04 03:14:52;;;;;;;4.22;1.30;;;13.30;99.90;;;13.33;100.00;102032.44;5247277;28;20041;-50
2023/10/04 03:17:26;;;;;;;3.28;1.42;;;13.30;99.90;;;13.34;100.00;102031.59;5255282;28;20060;-50
2023/10/04 03:20:00;;;;;;;2.03;1.08;;;13.20;99.90;;;13.34;100.00;102031.59;5248139;28;20469;-49
2023/10/04 03:22:33;;;;;;;1.73;1.15;;;13.20;99.90;;;13.34;100.00;102024.63;5258211;28;20135;-49
2023/10/04 03:25:14;;;;;;;2.45;1.13;;;13.30;99.90;;;13.35;100.00;102022.91;5259042;28;20051;-49
2023/10/04 03:27:47;;;;;;;1.55;1.00;;;13.20;99.90;;;13.34;100.00;102015.88;5247470;28;20499;-49
2023/10/04 03:30:20;;;;;;;3.03;1.10;;;13.20;99.90;;;13.35;100.00;102015.03;5255677;28;20380;-50
2023/10/04 03:32:55;;;;;;;2.72;1.20;;;13.30;99.90;;;13.34;100.00;102013.25;5257817;28;20035;-50
2023/10/04 03:35:31;;;;;;;2.45;1.17;;;13.20;99.90;;;13.33;100.00;102007.13;5263830;28;20056;-49
2023/10/04 03:38:05;;;;;;;1.60;1.10;;;13.20;99.90;;;13.34;100.00;102023.72;5246860;28;20517;-49
2023/10/04 03:40:43;;;;;;;1.17;1.02;;;13.20;99.90;;;13.35;100.00;102026.41;5247070;28;20044;-48
2023/10/04 03:43:24;;;;;;;3.47;1.10;;;13.20;99.90;;;13.36;100.00;102016.81;5250764;28;20060;-49
2023/10/04 03:45:57;;;;;;;2.45;1.20;;;13.30;99.90;;;13.36;100.00;102019.44;5251067;28;20037;-49
2023/10/04 03:48:30;;;;;;;1.58;1.10;;;13.30;99.90;;;13.36;100.00;102024.69;5252637;28;20454;-49
2023/10/04 03:51:07;;;;;;;4.07;1.27;;;13.30;99.90;;;13.36;100.00;102019.44;5248584;28;20070;-50
2023/10/04 03:53:42;;;;;;;2.88;1.00;;;13.30;99.90;;;13.35;100.00;102031.66;5247857;28;20074;-50
2023/10/04 03:56:18;;;;;;;2.38;0.90;;;13.30;99.90;;;13.34;100.00;102036.81;5259404;28;20040;-50
2023/10/04 03:58:51;;;;;;;2.83;1.10;;;13.30;99.90;;;13.35;100.00;102034.28;5246434;28;20062;-49
2023/10/04 04:01:27;;;;;;;2.03;0.95;;;13.20;99.90;;;13.34;100.00;102040.34;5248625;28;20097;-49
2023/10/04 04:04:03;;;;;;;2.72;0.90;;;13.30;99.90;;;13.32;100.00;102046.34;5247429;28;20048;-50
2023/10/04 04:06:36;;;;;;;2.40;1.23;;;13.20;99.90;;;13.30;100.00;102041.94;5254452;28;20132;-49
2023/10/04 04:09:10;;;;;;;1.85;1.00;;;13.20;99.90;;;13.30;100.00;102049.81;5256571;28;20048;-49
2023/10/04 04:11:43;;;;;;;2.40;1.30;;;13.20;99.90;;;13.28;100.00;102048.81;5247688;28;20415;-49
2023/10/04 04:14:18;;;;;;;1.73;0.93;;;13.20;99.90;;;13.26;100.00;102047.88;5248367;28;20044;-50
2023/10/04 04:16:51;;;;;;;2.40;1.30;;;13.20;99.90;;;13.23;100.00;102046.81;5256401;28;20134;-49
2023/10/04 04:19:27;;;;;;;1.70;1.13;;;13.20;99.90;;;13.21;100.00;102044.16;5248701;28;20510;-49
2023/10/04 04:22:01;;;;;;;2.78;1.13;;;13.10;99.90;;;13.20;100.00;102047.59;5246415;28;20507;-49
2023/10/04 04:24:34;;;;;;;2.53;1.10;;;13.10;99.90;;;13.19;100.00;102050.13;5249694;28;20049;-52
2023/10/04 04:27:08;;;;;;;1.60;1.10;;;13.10;99.90;;;13.13;100.00;102035.03;5254268;28;20556;-50
2023/10/04 04:29:41;;;;;;;1.98;1.17;;;13.10;99.90;;;13.12;100.00;102037.59;5247616;28;20053;-49
2023/10/04 04:32:15;;;;;;;2.72;1.20;;;13.00;99.90;;;13.09;100.00;102035.72;5269218;28;20044;-49
2023/10/04 04:34:48;;;;;;;2.63;1.75;;;13.00;99.90;;;13.08;100.00;102044.41;5252194;28;20470;-48
2023/10/04 04:37:22;;;;;;;2.67;1.25;;;13.00;99.90;;;13.07;100.00;102045.22;5251600;28;20051;-51
2023/10/04 04:39:54;;;;;;;2.13;1.20;;;13.00;99.90;;;13.05;100.00;102052.13;5244166;28;20076;-51
2023/10/04 04:42:35;;;;;;;2.08;1.00;;;13.00;99.90;;;13.01;100.00;102051.09;5257845;28;20048;-48
2023/10/04 04:45:24;;;;;;;1.55;1.02;;;12.90;99.90;;;12.97;100.00;102040.41;5245728;28;20048;-48
2023/10/04 04:47:59;;;;;;;2.35;1.30;;;12.90;99.90;;;12.93;100.00;102051.59;5266440;28;20056;-49
2023/10/04 04:50:33;;;;;;;1.63;1.02;;;12.80;99.90;;;12.88;100.00;102045.25;5253845;28;20139;-49
2023/10/04 04:53:09;;;;;;;2.15;1.20;;;12.80;99.90;;;12.82;100.00;102052.81;5265167;28;20063;-50
2023/10/04 04:55:42;;;;;;;2.13;1.13;;;12.70;99.90;;;12.74;100.00;102055.97;5243232;28;20060;-49
2023/10/04 04:58:18;;;;;;;2.08;1.25;;;12.70;99.90;;;12.68;100.00;102050.47;5249027;28;20071;-49
2023/10/04 05:00:55;;;;;;;1.98;1.00;;;12.60;99.90;;;12.62;100.00;102052.78;5243843;28;20133;-57
2023/10/04 05:03:30;;;;;;;3.22;1.20;;;12.60;99.90;;;12.58;100.00;102053.47;5268761;28;20407;-49
2023/10/04 05:06:05;;;;;;;1.67;0.88;;;12.50;99.90;;;12.54;100.00;102055.88;5245276;28;20054;-49
2023/10/04 05:08:37;;;;;;;;;;;12.50;99.90;;;12.49;100.00;102047.81;5246571;28;20052;-49
2023/10/04 05:11:10;;;;;;;3.90;1.50;;;12.40;99.90;;;12.45;100.00;102043.25;5249492;28;20486;-49
2023/10/04 05:13:47;;;;;;;1.23;0.90;;;12.40;99.90;;;12.40;100.00;102042.16;5252745;28;20094;-49
2023/10/04 05:16:20;;;;;;;2.22;1.00;;;12.30;99.90;;;12.36;100.00;102042.81;5241048;28;20394;-50
2023/10/04 05:18:53;;;;;;;1.77;1.05;;;12.30;99.90;;;12.32;100.00;102033.94;5260631;28;20402;-49
2023/10/04 05:21:30;;;;;;;2.08;1.00;;;12.30;99.90;;;12.30;100.00;102039.91;5261046;28;21249;-49
2023/10/04 05:24:06;;;;;;;2.88;1.45;;;12.30;99.90;;;12.28;100.00;102046.81;5254338;28;20402;-49
2023/10/04 05:26:39;;;;;;;2.70;1.20;;;12.20;99.90;;;12.24;100.00;102043.13;5255709;28;20055;-51
2023/10/04 05:29:13;;;;;;;2.38;1.00;;;12.20;99.90;;;12.20;100.00;102044.72;5248593;28;20060;-50
2023/10/04 05:31:46;;;;;;;3.13;1.27;;;12.20;99.90;;;12.17;100.00;102044.56;5245008;28;20041;-49
2023/10/04 05:34:19;;;;;;;2.70;1.10;;;12.10;99.90;;;12.15;100.00;102047.94;5247194;28;20040;-50
2023/10/04 05:36:52;;;;;;;1.35;1.00;;;12.10;99.90;;;12.13;100.00;102058.31;5250373;28;20068;-49
2023/10/04 05:39:28;;;;;;;2.70;1.33;;;12.10;99.90;;;12.13;100.00;102070.50;5251055;28;20062;-49
2023/10/04 05:42:00;;;;;;;2.42;1.08;;;12.10;99.90;;;12.10;100.00;102057.25;5245077;28;20048;-51
2023/10/04 05:44:34;;;;;;;1.55;1.00;;;12.00;99.90;;;12.11;100.00;102057.34;5247054;28;20045;-49
2023/10/04 05:47:06;;;;;;;2.92;0.98;;;12.00;99.90;;;12.12;100.00;102053.88;5242981;28;20086;-49
2023/10/04 05:49:42;;;;;;;4.60;1.45;;;12.10;99.90;;;12.15;100.00;102056.66;5251956;28;20052;-49
2023/10/04 05:52:14;;;;;;;2.42;1.42;;;12.10;99.90;;;12.16;100.00;102058.47;5249665;28;20060;-49
2023/10/04 05:54:47;;;;;;;2.63;1.30;;;12.10;99.90;;;12.18;100.00;102054.19;5247042;28;20040;-49
2023/10/04 05:57:19;;;;;;;1.85;1.15;;;12.10;99.90;;;12.19;100.00;102065.53;5250653;28;20543;-48
2023/10/04 05:59:53;;;;;;;2.80;1.30;;;12.10;99.90;;;12.22;100.00;102058.75;5253538;28;20135;-49
2023/10/04 06:02:25;;;;;;;2.40;1.30;;;12.20;99.90;;;12.28;100.00;102060.78;5246626;28;20048;-49
2023/10/04 06:04:58;;;;;;;1.90;1.20;;;12.20;99.90;;;12.32;100.00;102073.16;5246130;28;20385;-49
2023/10/04 06:07:33;;;;;;;2.50;1.40;;;12.20;99.90;;;12.38;100.00;102075.16;5253522;28;20044;-49
2023/10/04 06:10:07;;;;;;;1.63;1.33;;;12.30;99.90;;;12.45;100.00;102077.25;5250446;28;20041;-50
2023/10/04 06:12:40;;;;;;;2.63;1.75;;;12.30;99.90;;;12.51;100.00;102077.53;5250981;28;20052;-49
2023/10/04 06:15:16;;;;;;;2.30;1.20;;;12.40;99.90;;;12.57;100.00;102076.94;5245630;28;20048;-49
2023/10/04 06:17:53;;;;;;;2.55;1.40;;;12.50;99.90;;;12.67;100.00;102085.28;5253646;28;20037;-49
2023/10/04 06:20:28;;;;;;;3.53;1.40;;;12.60;99.90;;;12.79;100.00;102095.44;5248400;28;20101;-49
2023/10/04 06:23:05;;;;;;;4.45;1.45;;;12.70;99.90;;;12.91;100.00;102095.09;5245014;28;20581;-49
2023/10/04 06:25:42;;;;;;;4.25;1.70;;;12.80;99.90;;;12.98;100.00;102090.22;5243722;28;20045;-50
2023/10/04 06:28:15;;;;;;;3.05;1.52;;;12.80;99.90;;;13.02;100.00;102099.09;5247787;28;20028;-49
2023/10/04 06:30:49;;;;;;;3.75;1.40;;;12.90;99.90;;;13.09;100.00;102100.28;5251231;28;20044;-51
2023/10/04 06:33:22;;;;;;;4.65;2.35;;;13.00;99.90;;;13.15;100.00;102114.53;5257450;28;20068;-50
2023/10/04 06:35:55;;;;;;;2.95;1.67;;;13.00;99.90;;;13.27;100.00;102109.88;5248173;28;20148;-51
2023/10/04 06:38:27;;;;;;;3.47;1.50;;;13.10;99.90;;;13.42;100.00;102119.25;5256667;28;20098;-50
2023/10/04 06:40:59;;;;;;;4.25;1.77;;;13.30;99.90;;;13.55;100.00;102134.69;5251061;28;20414;-49
2023/10/04 06:43:35;;;;;;;2.88;1.73;;;13.40;99.90;;;13.68;100.00;102137.00;5249233;28;20040;-48
2023/10/04 06:46:10;;;;;;;4.15;1.67;;;13.50;99.90;;;13.78;100.00;102131.34;5249965;28;20048;-48
2023/10/04 06:48:42;;;;;;;3.63;1.52;;;13.60;99.90;;;13.88;100.00;102118.59;5244324;28;20458;-50
2023/10/04 06:51:14;;;;;;;3.55;1.52;;;13.70;99.90;;;13.98;100.00;102119.06;5267876;28;20052;-49
2023/10/04 06:53:46;;;;;;;3.33;1.55;;;13.80;99.90;;;14.05;100.00;102117.59;5269575;28;20407;-51
2023/10/04 06:56:18;;;;;;;3.03;1.73;;;13.90;99.90;;;14.12;100.00;102124.88;5243835;28;20052;-49
2023/10/04 06:58:51;;;;;;;2.63;1.60;;;13.90;99.90;;;14.23;100.00;102127.97;5265069;28;20057;-51
2023/10/04 07:01:26;;;;;;;5.10;2.00;;;14.00;99.90;;;14.36;100.00;102130.25;5245657;28;20033;-49
2023/10/04 07:03:58;;;;;;;5.25;2.13;;;14.20;99.90;;;14.45;100.00;102135.84;5270207;28;20053;-50
2023/10/04 07:06:32;;;;;;;4.70;1.92;;;14.30;99.90;;;14.56;100.00;102144.22;5261522;28;20110;-50
2023/10/04 07:09:07;;;;;;;4.05;1.88;;;14.30;99.90;;;14.62;100.00;102144.44;5248525;28;20491;-50
2023/10/04 07:11:43;;;;;;;2.47;1.50;;;14.40;99.90;;;14.68;100.00;102139.44;5245035;28;20048;-49
2023/10/04 07:14:15;;;;;;;4.03;1.90;;;14.50;99.90;;;14.78;100.00;102145.94;5244531;28;20048;-49
2023/10/04 07:16:49;;;;;;;3.75;1.75;;;14.50;99.90;;;14.81;100.00;102152.22;5244828;28;20040;-49
2023/10/04 07:19:22;;;;;;;3.40;1.75;;;14.60;99.90;;;14.84;100.00;102157.56;5245576;28;20078;-50
2023/10/04 07:21:57;;;;;;;2.80;1.70;;;14.60;99.90;;;14.85;100.00;102154.09;5247601;28;20059;-51
2023/10/04 07:24:32;;;;;;;4.28;1.77;;;14.70;99.90;;;14.86;100.00;102165.50;5258531;28;20051;-50
2023/10/04 07:27:04;;;;;;;3.85;2.05;;;14.70;99.90;;;14.85;100.00;102154.09;5259209;28;20040;-49
2023/10/04 07:29:40;;;;;;;3.35;1.80;;;14.70;99.90;;;14.86;100.00;102161.13;5261898;28;20052;-49
2023/10/04 07:32:14;;;;;;;3.50;1.60;;;14.70;99.90;;;14.90;100.00;102165.69;5251027;28;20402;-49
2023/10/04 07:34:46;;;;;;;3.97;1.58;;;14.80;99.90;;;14.92;100.00;102173.63;5250891;28;20523;-49
2023/10/04 07:37:18;;;;;;;4.80;1.90;;;14.70;99.90;;;15.00;100.00;102173.94;5245623;28;20060;-50
2023/10/04 07:39:52;;;;;;;4.00;1.90;;;14.80;99.90;;;15.09;100.00;102179.53;5255548;28;20129;-50
2023/10/04 07:42:26;;;;;;;5.28;2.05;;;14.80;99.90;;;15.15;100.00;102187.66;5249990;28;20048;-49
2023/10/04 07:44:58;;;;;;;3.13;1.52;;;14.90;99.90;;;15.22;100.00;102184.41;5255861;28;20147;-50
2023/10/04 07:47:34;;;;;;;5.72;1.75;;;14.90;99.90;;;15.29;100.00;102186.44;5270629;28;20182;-50
2023/10/04 07:50:09;;;;;;;4.72;1.73;;;15.00;99.90;;;15.36;100.00;102191.06;5243758;28;20068;-50
2023/10/04 07:52:44;;;;;;;5.90;2.30;;;15.10;99.90;;;15.40;100.00;102190.34;5251585;28;20143;-49
2023/10/04 07:55:18;;;;;;;3.85;1.50;;;15.20;99.90;;;15.43;100.00;102190.47;5258616;28;20048;-51
2023/10/04 07:57:58;;;;;;;3.22;1.60;;;15.20;99.90;;;15.53;100.00;102198.69;5257890;28;20055;-51
2023/10/04 08:00:31;;;;;;;3.92;1.50;;;15.30;99.90;;;15.71;100.00;102194.13;5254481;28;20050;-50
2023/10/04 08:03:06;;;;;;;2.67;1.75;;;15.30;99.90;;;16.12;100.00;102197.34;5245549;28;20048;-49
2023/10/04 08:05:39;;;;;;;4.10;1.75;;;15.60;99.90;;;16.53;100.00;102191.69;5266867;28;20055;-48
2023/10/04 08:08:11;;;;;;;7.10;2.00;;;15.90;99.90;;;16.94;100.00;102194.78;5246267;28;20461;-49
2023/10/04 08:10:44;;;;;;;5.13;2.10;;;16.20;99.90;;;17.41;100.00;102203.25;5249334;28;20059;-49
2023/10/04 08:13:17;;;;;;;7.32;1.75;;;16.50;99.90;;;17.88;100.00;102201.06;5264930;28;20101;-49
2023/10/04 08:15:53;;;;;;;5.15;2.03;;;16.80;99.90;;;18.42;100.00;102192.78;5258239;28;20072;-50
2023/10/04 08:18:28;;;;;;;4.20;2.10;;;17.20;99.90;;;19.10;100.00;102197.91;5263100;28;20575;-49
2023/10/04 08:21:06;;;;;;;5.63;1.98;;;17.70;99.90;;;19.96;100.00;102192.66;5253198;28;20072;-51
2023/10/04 08:23:38;;;;;;;4.95;1.70;;;18.30;99.90;;;20.84;99.05;102203.84;5250356;28;20522;-50
2023/10/04 08:26:15;;;;;;;5.80;1.63;;;19.00;99.90;;;21.57;94.68;102206.63;5252205;28;20047;-50
2023/10/04 08:28:47;;;;;;;5.13;1.58;;;19.70;99.90;;;22.22;91.82;102193.19;5257686;28;20519;-50
2023/10/04 08:31:20;;;;;;;5.38;1.40;;;20.30;99.90;;;22.67;89.33;102192.66;5252217;28;20135;-51
2023/10/04 08:33:53;;;;;;;5.07;1.40;;;20.80;99.90;;;22.72;88.09;102190.03;5247819;28;20056;-50
2023/10/04 08:36:26;;;;;;;3.20;1.30;;;21.10;99.90;;;22.57;87.79;102189.94;5255712;28;20449;-52
2023/10/04 08:38:59;;;;;;;5.13;1.30;;;21.10;99.90;;;22.43;87.65;102189.81;5253412;28;20033;-51
2023/10/04 08:41:32;;;;;;;4.43;1.30;;;21.10;99.50;;;21.86;88.08;102193.69;5270490;28;20059;-50
2023/10/04 08:44:07;;;;;;;5.60;1.80;;;20.80;99.20;;;21.56;89.24;102189.81;5266148;28;20048;-50
2023/10/04 08:46:40;;;;;;;3.78;1.10;;;20.70;99.50;;;21.26;90.52;102194.72;5253535;28;20066;-50
2023/10/04 08:49:16;;;;;;;5.32;1.60;;;20.40;99.70;;;21.04;91.55;102194.44;5251735;28;20047;-51
2023/10/04 08:52:00;;;;;;;3.95;1.45;;;20.30;99.90;;;20.75;92.21;102186.06;5245354;28;20047;-50
2023/10/04 08:54:33;;;;;;;5.18;1.20;;;20.10;99.90;;;20.38;92.88;102191.63;5251558;28;20052;-50
2023/10/04 08:57:13;;;;;;;4.07;1.38;;;19.80;99.90;;;19.90;94.42;102197.84;5249193;28;20048;-50
2023/10/04 08:59:51;;;;;;;4.85;1.30;;;19.50;99.90;;;19.55;96.37;102192.69;5250430;28;20040;-50
2023/10/04 09:02:24;;;;;;;3.55;1.48;;;19.10;99.90;;;19.29;97.56;102199.22;5245790;28;20594;-49
2023/10/04 09:04:58;;;;;;;4.72;1.45;;;18.90;99.90;;;19.03;98.92;102202.19;5243596;28;20063;-49
2023/10/04 09:07:31;;;;;;;4.97;1.20;;;18.60;99.90;;;18.89;100.00;102208.91;5256501;28;20643;-49
2023/10/04 09:10:06;;;;;;;4.95;1.52;;;18.50;99.90;;;18.82;100.00;102201.69;5249375;28;20052;-50
2023/10/04 09:12:38;;;;;;;3.00;1.20;;;18.40;99.90;;;18.89;100.00;102214.19;5259586;28;20055;-50
2023/10/04 09:15:13;;;;;;;3.10;0.98;;;18.40;99.90;;;19.09;100.00;102210.25;5249572;28;20056;-49
2023/10/04 09:17:47;;;;;;;4.32;1.15;;;18.50;99.90;;;19.37;100.00;102203.81;5256279;28;20040;-50
2023/10/04 09:20:27;;;;;;;2.70;1.10;;;18.70;99.90;;;19.65;100.00;102205.31;5246563;28;20052;-50
2023/10/04 09:23:00;;;;;;;4.95;1.20;;;19.00;99.90;;;19.85;99.69;102196.84;5267900;28;20776;-49
2023/10/04 09:25:36;;;;;;;3.50;0.98;;;19.10;99.90;;;20.04;98.67;102199.88;5256665;28;20411;-50
2023/10/04 09:28:10;;;;;;;4.22;1.23;;;19.40;99.90;;;20.22;97.51;102198.41;5252586;28;20039;-48
2023/10/04 09:30:43;;;;;;;3.63;1.40;;;19.50;99.90;;;20.42;96.15;102198.75;5257438;28;20064;-49
2023/10/04 09:33:28;;;;;;;4.13;1.33;;;19.70;99.90;;;20.55;95.01;102201.66;5255884;28;20044;-49
2023/10/04 09:36:02;;;;;;;3.60;1.63;;;19.80;99.90;;;20.63;94.67;102192.94;5256635;28;20514;-50
2023/10/04 09:38:35;;;;;;;3.92;1.48;;;19.90;99.90;;;20.76;94.44;102200.22;5255975;28;20035;-51
2023/10/04 09:41:09;;;;;;;3.15;1.13;;;20.10;99.90;;;20.83;94.05;102194.13;5250972;28;20040;-52
2023/10/04 09:43:42;;;;;;;5.97;1.88;;;20.10;99.90;;;20.97;93.02;102186.38;5253907;28;20523;-50
2023/10/04 09:46:14;;;;;;;4.93;1.35;;;20.20;99.90;;;21.05;92.28;102192.66;5254985;28;20465;-49
2023/10/04 09:48:47;;;;;;;3.92;1.20;;;20.30;99.90;;;21.10;92.39;102189.22;5259578;28;20044;-51
2023/10/04 09:51:22;;;;;;;2.35;1.00;;;20.40;99.90;;;21.25;91.84;102182.31;5255012;28;20048;-50
2023/10/04 09:53:54;;;;;;;3.40;1.30;;;20.50;99.90;;;21.38;91.45;102185.16;5262374;28;20059;-51
2023/10/04 09:56:27;;;;;;;7.05;1.40;;;20.70;99.80;;;21.60;92.83;102190.75;5259223;28;20060;-52
2023/10/04 09:59:01;;;;;;;3.97;1.40;;;20.80;99.90;;;21.73;91.31;102191.78;5279161;28;20055;-52
2023/10/04 10:01:34;;;;;;;5.55;1.25;;;21.00;99.80;;;21.77;92.24;102189.16;5256495;28;20067;-51
2023/10/04 10:04:15;;;;;;;3.40;1.30;;;21.10;99.90;;;21.73;91.52;102190.03;5251158;28;20045;-51
2023/10/04 10:07:09;;;;;;;5.00;1.38;;;21.10;99.60;;;21.64;91.83;102187.25;5261021;28;20100;-53
2023/10/04 10:09:55;;;;;;;3.58;1.27;;;21.10;99.60;;;21.67;92.00;102193.50;5263030;28;20052;-51
2023/10/04 10:12:30;;;;;;;4.88;1.52;;;21.10;99.60;;;21.74;90.78;102183.84;5257289;28;20048;-51
2023/10/04 10:15:04;;;;;;;4.43;1.48;;;21.10;99.20;;;21.84;90.40;102191.03;5248987;28;20511;-52
2023/10/04 10:17:37;;;;;;;4.43;1.15;;;21.20;99.20;;;21.94;90.27;102189.34;5263969;28;20040;-52
2023/10/04 10:20:11;;;;;;;3.45;1.30;;;21.30;99.00;;;21.88;88.94;102195.47;5257082;28;20055;-51
2023/10/04 10:23:21;;;;;;;4.38;1.85;;;21.30;98.40;;;21.57;87.48;102198.66;5254654;28;20047;-51
2023/10/04 10:26:24;;;;;;;3.65;1.45;;;21.10;97.50;;;21.48;89.02;102201.22;5250738;28;20052;-53
2023/10/04 10:29:03;;;;;;;5.95;1.60;;;21.00;98.30;;;21.52;88.16;102189.78;5196731;28;20656;-50
2023/10/04 10:31:36;;;;;;;3.35;1.15;;;21.00;97.90;;;21.60;88.59;102191.66;5242258;28;20056;-50
2023/10/04 10:34:08;;;;;;;3.50;1.10;;;21.00;98.10;;;21.62;87.46;102192.53;5253030;28;20045;-51
2023/10/04 10:36:41;;;;;;;7.45;1.42;;;21.10;97.70;;;21.66;86.70;102193.47;5267530;28;20055;-52
2023/10/04 10:39:24;;;;;;;;;;;21.10;97.30;;;21.67;85.82;102188.19;5249459;28;20040;-51